Airfield :
LOGIN :

Register | Disclaimer

   EN    FR    IT 

 










Legend :    VFR   Marginal VFR   IFR   Intensive IFR   Very Intensive IFR
Visi :
Ceiling :
>= 8 km
>= 3000ft
5 to 8 km
1000 to 3000 ft
1500m to 5 km
500 to 1000 ft
800 to 1500m
200 to 500 ft
< 800m
< 200 ft
Symbols :   Thunderstorms  Fog  Heavy snow  Heavy precipitations  Wind > 20 kt
SIGMETs :     Misc.  Thunderstorms  Icing  Turbulence  Mountain Waves  Volcanic Ashes






- Airport Elevation : 313 ft


LFQA - Reims-Prunay

CURRENT METAR :
  • 300000Z AUTO 28005KT 250V310 9999 FEW032 BKN070 14/13 Q1008

EXPIRED METARs :
  • 292330Z AUTO 29006KT 260V320 9999 BKN009 BKN022 BKN031 14/13 Q1008
  • 292300Z AUTO 31005KT 280V340 9999 BKN007 BKN012 OVC019 14/14 Q1008
  • 292230Z AUTO 30008KT 9999 BKN007 OVC017 14/14 Q1008
  • 292200Z AUTO 30005KT 9999 BKN005 BKN029 15/14 Q1008
  • 292130Z AUTO 31007KT 9999 BKN008 BKN013 BKN030 15/14 Q1008
  • 292100Z AUTO 23004KT 200V260 9999 FEW009 BKN015 OVC022 15/14 Q1008
  • 292030Z AUTO 21005KT 170V230 9999 DZ BKN009/// BKN016/// OVC021/// ///CB 15/14 Q1008
  • 292000Z AUTO 17004KT 130V220 9999 -RA BKN011/// BKN016/// OVC022/// ///CB 15/14 Q1008
  • 291930Z AUTO 21005KT 170V250 6000 RA OVC009/// ///CB 15/14 Q1008

TAF N/A



MET'MAP, your aeronautical weather chart ! - Copyright ORBIFLY December 2007 - Disclaimer

ORBIFLY MET'MAP TEAM :

Programming & Development : Alexandra Zaïnal
Original concept : Baudouin d'Aumeries
Technical & hardware support : Manuel Goepfert
Assistance : Marc-Olivier Méhu




SOURCES & CREDITS :

   NOAA